sensor_id;sensor_type;location;lat;lon;timestamp;temperature;humidity
75838;SHT30;64480;52.040;113.502;2023-06-22T00:01:46;36.58;17.50
75838;SHT30;64480;52.040;113.502;2023-06-22T00:04:50;36.79;16.93
75838;SHT30;64480;52.040;113.502;2023-06-22T00:07:53;37.18;16.90
75838;SHT30;64480;52.040;113.502;2023-06-22T00:10:57;37.51;16.38
75838;SHT30;64480;52.040;113.502;2023-06-22T00:14:00;37.30;16.52
75838;SHT30;64480;52.040;113.502;2023-06-22T00:17:04;36.92;16.80
75838;SHT30;64480;52.040;113.502;2023-06-22T00:20:08;37.22;16.18
75838;SHT30;64480;52.040;113.502;2023-06-22T00:23:13;36.87;16.02
75838;SHT30;64480;52.040;113.502;2023-06-22T00:26:19;37.37;15.84
75838;SHT30;64480;52.040;113.502;2023-06-22T00:29:24;37.63;15.80
75838;SHT30;64480;52.040;113.502;2023-06-22T00:32:30;38.21;15.07
75838;SHT30;64480;52.040;113.502;2023-06-22T00:35:34;38.33;14.41
75838;SHT30;64480;52.040;113.502;2023-06-22T00:38:37;38.43;14.41
75838;SHT30;64480;52.040;113.502;2023-06-22T00:41:43;38.46;14.23
75838;SHT30;64480;52.040;113.502;2023-06-22T00:44:46;38.16;14.35
75838;SHT30;64480;52.040;113.502;2023-06-22T00:47:56;37.16;14.98
75838;SHT30;64480;52.040;113.502;2023-06-22T00:51:00;35.71;16.02
75838;SHT30;64480;52.040;113.502;2023-06-22T00:54:04;33.90;17.00
75838;SHT30;64480;52.040;113.502;2023-06-22T00:57:08;32.07;18.20
75838;SHT30;64480;52.040;113.502;2023-06-22T01:00:18;30.91;19.58
75838;SHT30;64480;52.040;113.502;2023-06-22T01:03:22;29.97;20.61
75838;SHT30;64480;52.040;113.502;2023-06-22T01:06:33;29.40;21.35
75838;SHT30;64480;52.040;113.502;2023-06-22T01:10:10;29.02;22.29
75838;SHT30;64480;52.040;113.502;2023-06-22T01:13:18;28.54;22.34
75838;SHT30;64480;52.040;113.502;2023-06-22T01:16:33;28.09;22.89
75838;SHT30;64480;52.040;113.502;2023-06-22T01:19:49;27.82;23.46
75838;SHT30;64480;52.040;113.502;2023-06-22T01:26:19;27.02;24.29
75838;SHT30;64480;52.040;113.502;2023-06-22T01:29:25;27.06;24.61
75838;SHT30;64480;52.040;113.502;2023-06-22T01:32:33;26.89;24.43
75838;SHT30;64480;52.040;113.502;2023-06-22T01:35:38;26.87;25.08
75838;SHT30;64480;52.040;113.502;2023-06-22T01:38:42;26.98;25.28
75838;SHT30;64480;52.040;113.502;2023-06-22T01:41:48;27.05;24.83
75838;SHT30;64480;52.040;113.502;2023-06-22T01:44:55;26.85;24.77
75838;SHT30;64480;52.040;113.502;2023-06-22T01:48:00;26.67;25.07
75838;SHT30;64480;52.040;113.502;2023-06-22T01:51:04;26.51;25.57
75838;SHT30;64480;52.040;113.502;2023-06-22T01:54:07;26.64;25.56
75838;SHT30;64480;52.040;113.502;2023-06-22T01:57:11;26.67;25.54
75838;SHT30;64480;52.040;113.502;2023-06-22T02:00:19;26.47;25.87
75838;SHT30;64480;52.040;113.502;2023-06-22T02:03:35;26.50;25.70
75838;SHT30;64480;52.040;113.502;2023-06-22T02:06:43;26.30;26.36
75838;SHT30;64480;52.040;113.502;2023-06-22T02:09:51;26.48;26.37
75838;SHT30;64480;52.040;113.502;2023-06-22T02:12:57;26.68;26.31
75838;SHT30;64480;52.040;113.502;2023-06-22T02:16:02;26.65;25.93
75838;SHT30;64480;52.040;113.502;2023-06-22T02:19:07;26.29;25.93
75838;SHT30;64480;52.040;113.502;2023-06-22T02:22:11;26.23;26.92
75838;SHT30;64480;52.040;113.502;2023-06-22T02:25:15;26.41;26.25
75838;SHT30;64480;52.040;113.502;2023-06-22T02:28:20;26.33;26.29
75838;SHT30;64480;52.040;113.502;2023-06-22T02:31:24;26.27;26.02
75838;SHT30;64480;52.040;113.502;2023-06-22T02:34:33;26.47;26.54
75838;SHT30;64480;52.040;113.502;2023-06-22T02:37:38;26.54;25.81
75838;SHT30;64480;52.040;113.502;2023-06-22T02:40:44;26.65;26.28
75838;SHT30;64480;52.040;113.502;2023-06-22T02:43:48;26.43;25.58
75838;SHT30;64480;52.040;113.502;2023-06-22T02:46:54;26.50;25.86
75838;SHT30;64480;52.040;113.502;2023-06-22T02:49:58;26.50;25.18
75838;SHT30;64480;52.040;113.502;2023-06-22T02:53:01;26.45;25.52
75838;SHT30;64480;52.040;113.502;2023-06-22T02:56:10;26.44;26.04
75838;SHT30;64480;52.040;113.502;2023-06-22T02:59:14;26.65;25.76
75838;SHT30;64480;52.040;113.502;2023-06-22T03:02:19;26.41;24.62
75838;SHT30;64480;52.040;113.502;2023-06-22T03:05:25;26.36;25.00
75838;SHT30;64480;52.040;113.502;2023-06-22T03:08:30;26.26;25.37
75838;SHT30;64480;52.040;113.502;2023-06-22T03:11:34;26.43;25.22
75838;SHT30;64480;52.040;113.502;2023-06-22T03:14:38;26.48;24.49
75838;SHT30;64480;52.040;113.502;2023-06-22T03:17:41;26.50;24.89
75838;SHT30;64480;52.040;113.502;2023-06-22T03:20:45;26.44;24.76
75838;SHT30;64480;52.040;113.502;2023-06-22T03:23:49;26.64;25.03
75838;SHT30;64480;52.040;113.502;2023-06-22T03:26:52;26.72;24.51
75838;SHT30;64480;52.040;113.502;2023-06-22T03:29:57;26.58;24.17
75838;SHT30;64480;52.040;113.502;2023-06-22T03:33:02;26.54;24.68
75838;SHT30;64480;52.040;113.502;2023-06-22T03:36:08;26.62;24.91
75838;SHT30;64480;52.040;113.502;2023-06-22T03:39:12;26.60;23.99
75838;SHT30;64480;52.040;113.502;2023-06-22T03:42:16;26.65;24.79
75838;SHT30;64480;52.040;113.502;2023-06-22T03:45:20;26.77;23.77
75838;SHT30;64480;52.040;113.502;2023-06-22T03:48:24;26.51;24.34
75838;SHT30;64480;52.040;113.502;2023-06-22T03:51:28;26.30;24.84
75838;SHT30;64480;52.040;113.502;2023-06-22T03:54:31;26.44;24.75
75838;SHT30;64480;52.040;113.502;2023-06-22T03:57:35;26.50;23.23
75838;SHT30;64480;52.040;113.502;2023-06-22T04:00:38;26.40;24.11
75838;SHT30;64480;52.040;113.502;2023-06-22T04:03:55;26.55;25.53
75838;SHT30;64480;52.040;113.502;2023-06-22T04:07:00;26.75;25.33
75838;SHT30;64480;52.040;113.502;2023-06-22T04:10:04;26.87;25.14
75838;SHT30;64480;52.040;113.502;2023-06-22T04:13:11;27.03;24.53
75838;SHT30;64480;52.040;113.502;2023-06-22T04:16:15;26.82;25.06
75838;SHT30;64480;52.040;113.502;2023-06-22T04:19:21;26.95;25.01
75838;SHT30;64480;52.040;113.502;2023-06-22T04:22:27;26.91;24.95
75838;SHT30;64480;52.040;113.502;2023-06-22T04:25:31;26.88;25.40
75838;SHT30;64480;52.040;113.502;2023-06-22T04:28:44;26.89;25.16
75838;SHT30;64480;52.040;113.502;2023-06-22T04:31:54;26.91;25.57
75838;SHT30;64480;52.040;113.502;2023-06-22T04:35:00;27.00;24.74
75838;SHT30;64480;52.040;113.502;2023-06-22T04:38:04;27.05;25.44
75838;SHT30;64480;52.040;113.502;2023-06-22T04:41:19;27.19;25.16
75838;SHT30;64480;52.040;113.502;2023-06-22T04:44:26;27.30;24.64
75838;SHT30;64480;52.040;113.502;2023-06-22T04:47:30;27.26;23.83
75838;SHT30;64480;52.040;113.502;2023-06-22T04:50:34;27.10;24.05
75838;SHT30;64480;52.040;113.502;2023-06-22T04:53:37;26.89;24.69
75838;SHT30;64480;52.040;113.502;2023-06-22T04:56:47;27.03;25.27
75838;SHT30;64480;52.040;113.502;2023-06-22T04:59:51;27.19;24.69
75838;SHT30;64480;52.040;113.502;2023-06-22T05:02:54;27.24;24.44
75838;SHT30;64480;52.040;113.502;2023-06-22T05:06:19;27.19;24.83
75838;SHT30;64480;52.040;113.502;2023-06-22T05:09:23;27.27;25.51
75838;SHT30;64480;52.040;113.502;2023-06-22T05:12:29;27.34;25.58
75838;SHT30;64480;52.040;113.502;2023-06-22T05:15:32;27.51;25.26
75838;SHT30;64480;52.040;113.502;2023-06-22T05:18:39;27.49;25.43
75838;SHT30;64480;52.040;113.502;2023-06-22T05:21:44;27.44;24.95
75838;SHT30;64480;52.040;113.502;2023-06-22T05:24:54;27.41;25.10
75838;SHT30;64480;52.040;113.502;2023-06-22T05:28:00;27.54;25.76
75838;SHT30;64480;52.040;113.502;2023-06-22T05:31:07;27.58;24.60
75838;SHT30;64480;52.040;113.502;2023-06-22T05:34:10;27.53;24.41
75838;SHT30;64480;52.040;113.502;2023-06-22T05:37:14;27.40;24.78
75838;SHT30;64480;52.040;113.502;2023-06-22T05:40:18;27.46;24.48
75838;SHT30;64480;52.040;113.502;2023-06-22T05:43:21;27.51;24.07
75838;SHT30;64480;52.040;113.502;2023-06-22T05:46:24;27.47;24.57
75838;SHT30;64480;52.040;113.502;2023-06-22T05:49:28;27.41;24.73
75838;SHT30;64480;52.040;113.502;2023-06-22T05:52:35;27.27;25.23
75838;SHT30;64480;52.040;113.502;2023-06-22T05:55:39;27.34;25.00
75838;SHT30;64480;52.040;113.502;2023-06-22T05:58:42;27.37;24.87
75838;SHT30;64480;52.040;113.502;2023-06-22T06:01:47;27.34;24.84
75838;SHT30;64480;52.040;113.502;2023-06-22T06:04:53;27.36;24.95
75838;SHT30;64480;52.040;113.502;2023-06-22T06:07:58;27.55;24.45
75838;SHT30;64480;52.040;113.502;2023-06-22T06:11:01;27.53;23.71
75838;SHT30;64480;52.040;113.502;2023-06-22T06:14:05;27.54;24.32
75838;SHT30;64480;52.040;113.502;2023-06-22T06:17:09;27.54;24.14
75838;SHT30;64480;52.040;113.502;2023-06-22T06:20:13;27.49;23.60
75838;SHT30;64480;52.040;113.502;2023-06-22T06:23:16;27.62;24.11
75838;SHT30;64480;52.040;113.502;2023-06-22T06:26:20;27.68;23.89
75838;SHT30;64480;52.040;113.502;2023-06-22T06:29:32;27.87;24.01
75838;SHT30;64480;52.040;113.502;2023-06-22T06:32:36;27.81;22.66
75838;SHT30;64480;52.040;113.502;2023-06-22T06:35:39;27.80;23.47
75838;SHT30;64480;52.040;113.502;2023-06-22T06:38:43;27.88;24.62
75838;SHT30;64480;52.040;113.502;2023-06-22T06:41:46;27.85;24.81
75838;SHT30;64480;52.040;113.502;2023-06-22T06:44:50;27.85;23.59
75838;SHT30;64480;52.040;113.502;2023-06-22T06:47:54;27.74;24.19
75838;SHT30;64480;52.040;113.502;2023-06-22T06:50:57;27.78;23.62
75838;SHT30;64480;52.040;113.502;2023-06-22T06:54:01;27.77;22.74
75838;SHT30;64480;52.040;113.502;2023-06-22T06:57:11;27.80;22.00
75838;SHT30;64480;52.040;113.502;2023-06-22T07:00:17;27.80;22.04
75838;SHT30;64480;52.040;113.502;2023-06-22T07:03:21;27.76;23.37
75838;SHT30;64480;52.040;113.502;2023-06-22T07:06:24;27.80;23.13
75838;SHT30;64480;52.040;113.502;2023-06-22T07:09:32;27.87;22.79
75838;SHT30;64480;52.040;113.502;2023-06-22T07:12:35;27.95;23.65
75838;SHT30;64480;52.040;113.502;2023-06-22T07:15:48;28.12;23.41
75838;SHT30;64480;52.040;113.502;2023-06-22T07:18:59;28.16;22.77
75838;SHT30;64480;52.040;113.502;2023-06-22T07:22:03;28.15;23.72
75838;SHT30;64480;52.040;113.502;2023-06-22T07:25:07;28.10;23.96
75838;SHT30;64480;52.040;113.502;2023-06-22T07:28:17;28.10;23.87
75838;SHT30;64480;52.040;113.502;2023-06-22T07:31:24;28.10;22.84
75838;SHT30;64480;52.040;113.502;2023-06-22T07:34:28;28.10;22.66
75838;SHT30;64480;52.040;113.502;2023-06-22T07:37:32;27.98;22.96
75838;SHT30;64480;52.040;113.502;2023-06-22T07:40:37;27.96;23.92
75838;SHT30;64480;52.040;113.502;2023-06-22T07:43:41;28.02;24.70
75838;SHT30;64480;52.040;113.502;2023-06-22T07:46:44;28.13;25.00
75838;SHT30;64480;52.040;113.502;2023-06-22T07:49:48;28.17;24.65
75838;SHT30;64480;52.040;113.502;2023-06-22T07:52:51;28.10;24.22
75838;SHT30;64480;52.040;113.502;2023-06-22T07:55:55;28.08;24.31
75838;SHT30;64480;52.040;113.502;2023-06-22T07:58:59;28.10;24.86
75838;SHT30;64480;52.040;113.502;2023-06-22T08:02:05;28.15;24.63
75838;SHT30;64480;52.040;113.502;2023-06-22T08:05:09;28.13;24.20
75838;SHT30;64480;52.040;113.502;2023-06-22T08:08:36;27.96;24.68
75838;SHT30;64480;52.040;113.502;2023-06-22T08:11:40;28.04;24.24
75838;SHT30;64480;52.040;113.502;2023-06-22T08:14:47;28.04;23.85
75838;SHT30;64480;52.040;113.502;2023-06-22T08:17:50;28.10;23.81
75838;SHT30;64480;52.040;113.502;2023-06-22T08:20:55;28.29;23.14
75838;SHT30;64480;52.040;113.502;2023-06-22T08:24:00;28.24;24.05
75838;SHT30;64480;52.040;113.502;2023-06-22T08:27:26;28.22;23.97
75838;SHT30;64480;52.040;113.502;2023-06-22T08:30:31;28.24;23.54
75838;SHT30;64480;52.040;113.502;2023-06-22T08:33:37;28.27;23.32
75838;SHT30;64480;52.040;113.502;2023-06-22T08:36:51;28.22;22.89
75838;SHT30;64480;52.040;113.502;2023-06-22T08:39:55;28.19;22.49
75838;SHT30;64480;52.040;113.502;2023-06-22T08:42:59;28.19;23.15
75838;SHT30;64480;52.040;113.502;2023-06-22T08:46:02;28.19;23.01
75838;SHT30;64480;52.040;113.502;2023-06-22T08:49:06;28.17;23.15
75838;SHT30;64480;52.040;113.502;2023-06-22T08:52:11;28.16;23.35
75838;SHT30;64480;52.040;113.502;2023-06-22T08:55:14;28.13;23.20
75838;SHT30;64480;52.040;113.502;2023-06-22T08:58:18;28.16;23.44
75838;SHT30;64480;52.040;113.502;2023-06-22T09:01:23;28.15;23.73
75838;SHT30;64480;52.040;113.502;2023-06-22T09:04:26;28.13;23.87
75838;SHT30;64480;52.040;113.502;2023-06-22T09:07:30;28.10;24.16
75838;SHT30;64480;52.040;113.502;2023-06-22T09:10:34;28.10;24.19
75838;SHT30;64480;52.040;113.502;2023-06-22T09:13:38;28.10;23.76
75838;SHT30;64480;52.040;113.502;2023-06-22T09:16:41;28.12;23.92
75838;SHT30;64480;52.040;113.502;2023-06-22T09:19:45;28.09;23.90
75838;SHT30;64480;52.040;113.502;2023-06-22T09:22:50;28.06;24.14
75838;SHT30;64480;52.040;113.502;2023-06-22T09:25:54;28.06;24.00
75838;SHT30;64480;52.040;113.502;2023-06-22T09:28:58;28.05;24.12
75838;SHT30;64480;52.040;113.502;2023-06-22T09:32:01;28.12;23.88
75838;SHT30;64480;52.040;113.502;2023-06-22T09:35:06;28.09;24.55
75838;SHT30;64480;52.040;113.502;2023-06-22T09:38:25;28.04;24.75
75838;SHT30;64480;52.040;113.502;2023-06-22T09:41:29;28.01;24.65
75838;SHT30;64480;52.040;113.502;2023-06-22T09:44:33;27.98;24.53
75838;SHT30;64480;52.040;113.502;2023-06-22T09:47:38;27.95;24.63
75838;SHT30;64480;52.040;113.502;2023-06-22T09:50:42;27.98;24.86
75838;SHT30;64480;52.040;113.502;2023-06-22T09:53:45;27.95;24.84
75838;SHT30;64480;52.040;113.502;2023-06-22T09:56:49;27.94;24.92
75838;SHT30;64480;52.040;113.502;2023-06-22T09:59:53;27.91;25.04
75838;SHT30;64480;52.040;113.502;2023-06-22T10:02:57;27.88;25.33
75838;SHT30;64480;52.040;113.502;2023-06-22T10:06:03;27.85;25.36
75838;SHT30;64480;52.040;113.502;2023-06-22T10:09:09;27.84;25.57
75838;SHT30;64480;52.040;113.502;2023-06-22T10:12:13;27.82;25.63
75838;SHT30;64480;52.040;113.502;2023-06-22T10:15:17;27.77;25.51
75838;SHT30;64480;52.040;113.502;2023-06-22T10:18:21;27.76;25.60
75838;SHT30;64480;52.040;113.502;2023-06-22T10:21:25;27.74;25.77
75838;SHT30;64480;52.040;113.502;2023-06-22T10:24:30;27.68;25.94
75838;SHT30;64480;52.040;113.502;2023-06-22T10:27:34;27.67;25.95
75838;SHT30;64480;52.040;113.502;2023-06-22T10:30:37;27.62;26.10
75838;SHT30;64480;52.040;113.502;2023-06-22T10:33:41;27.64;25.92
75838;SHT30;64480;52.040;113.502;2023-06-22T10:36:46;27.68;25.94
75838;SHT30;64480;52.040;113.502;2023-06-22T10:39:51;27.64;25.97
75838;SHT30;64480;52.040;113.502;2023-06-22T10:42:55;27.62;26.16
75838;SHT30;64480;52.040;113.502;2023-06-22T10:45:58;27.55;26.20
75838;SHT30;64480;52.040;113.502;2023-06-22T10:49:02;27.57;25.96
75838;SHT30;64480;52.040;113.502;2023-06-22T10:52:07;27.51;26.19
75838;SHT30;64480;52.040;113.502;2023-06-22T10:55:11;27.47;26.30
75838;SHT30;64480;52.040;113.502;2023-06-22T10:58:15;27.46;26.35
75838;SHT30;64480;52.040;113.502;2023-06-22T11:01:20;27.43;26.33
75838;SHT30;64480;52.040;113.502;2023-06-22T11:04:38;27.41;26.57
75838;SHT30;64480;52.040;113.502;2023-06-22T11:07:43;27.34;26.90
75838;SHT30;64480;52.040;113.502;2023-06-22T11:10:48;27.30;26.94
75838;SHT30;64480;52.040;113.502;2023-06-22T11:14:05;27.33;26.93
75838;SHT30;64480;52.040;113.502;2023-06-22T11:17:08;27.29;27.05
75838;SHT30;64480;52.040;113.502;2023-06-22T11:20:12;27.24;26.85
75838;SHT30;64480;52.040;113.502;2023-06-22T11:23:16;27.22;26.91
75838;SHT30;64480;52.040;113.502;2023-06-22T11:26:19;27.15;27.16
75838;SHT30;64480;52.040;113.502;2023-06-22T11:29:24;27.12;26.98
75838;SHT30;64480;52.040;113.502;2023-06-22T11:32:38;27.12;27.11
75838;SHT30;64480;52.040;113.502;2023-06-22T11:35:42;27.09;27.37
75838;SHT30;64480;52.040;113.502;2023-06-22T11:38:45;27.03;27.43
75838;SHT30;64480;52.040;113.502;2023-06-22T11:41:49;26.99;27.33
75838;SHT30;64480;52.040;113.502;2023-06-22T11:44:55;26.98;27.45
75838;SHT30;64480;52.040;113.502;2023-06-22T11:48:01;26.89;27.83
75838;SHT30;64480;52.040;113.502;2023-06-22T11:51:04;26.85;27.85
75838;SHT30;64480;52.040;113.502;2023-06-22T11:54:09;26.75;28.00
75838;SHT30;64480;52.040;113.502;2023-06-22T11:57:12;26.68;28.12
75838;SHT30;64480;52.040;113.502;2023-06-22T12:00:20;26.60;28.04
75838;SHT30;64480;52.040;113.502;2023-06-22T12:03:27;26.51;28.16
75838;SHT30;64480;52.040;113.502;2023-06-22T12:06:32;26.43;28.43
75838;SHT30;64480;52.040;113.502;2023-06-22T12:09:36;26.30;28.54
75838;SHT30;64480;52.040;113.502;2023-06-22T12:12:41;26.22;28.83
75838;SHT30;64480;52.040;113.502;2023-06-22T12:15:44;26.10;29.02
75838;SHT30;64480;52.040;113.502;2023-06-22T12:18:48;26.02;29.02
75838;SHT30;64480;52.040;113.502;2023-06-22T12:21:52;25.95;29.21
75838;SHT30;64480;52.040;113.502;2023-06-22T12:24:58;25.81;29.47
75838;SHT30;64480;52.040;113.502;2023-06-22T12:28:02;25.71;29.49
75838;SHT30;64480;52.040;113.502;2023-06-22T12:31:07;25.61;29.59
75838;SHT30;64480;52.040;113.502;2023-06-22T12:34:11;25.51;29.76
75838;SHT30;64480;52.040;113.502;2023-06-22T12:37:14;25.40;29.80
75838;SHT30;64480;52.040;113.502;2023-06-22T12:40:17;25.34;29.93
75838;SHT30;64480;52.040;113.502;2023-06-22T12:43:21;25.22;30.07
75838;SHT30;64480;52.040;113.502;2023-06-22T12:46:25;25.13;30.07
75838;SHT30;64480;52.040;113.502;2023-06-22T12:49:28;25.00;30.37
75838;SHT30;64480;52.040;113.502;2023-06-22T12:52:31;24.89;30.47
75838;SHT30;64480;52.040;113.502;2023-06-22T12:55:35;24.85;30.65
75838;SHT30;64480;52.040;113.502;2023-06-22T12:58:39;24.72;30.77
75838;SHT30;64480;52.040;113.502;2023-06-22T13:01:42;24.61;30.92
75838;SHT30;64480;52.040;113.502;2023-06-22T13:04:47;24.57;31.08
75838;SHT30;64480;52.040;113.502;2023-06-22T13:07:50;24.54;31.20
75838;SHT30;64480;52.040;113.502;2023-06-22T13:11:02;24.41;31.37
75838;SHT30;64480;52.040;113.502;2023-06-22T13:14:07;24.34;31.53
75838;SHT30;64480;52.040;113.502;2023-06-22T13:17:11;24.28;31.67
75838;SHT30;64480;52.040;113.502;2023-06-22T13:20:18;24.21;31.74
75838;SHT30;64480;52.040;113.502;2023-06-22T13:23:24;24.16;31.84
75838;SHT30;64480;52.040;113.502;2023-06-22T13:26:31;24.10;31.96
75838;SHT30;64480;52.040;113.502;2023-06-22T13:29:35;24.07;31.91
75838;SHT30;64480;52.040;113.502;2023-06-22T13:32:52;23.96;32.11
75838;SHT30;64480;52.040;113.502;2023-06-22T13:35:56;23.85;32.18
75838;SHT30;64480;52.040;113.502;2023-06-22T13:38:59;23.86;32.26
75838;SHT30;64480;52.040;113.502;2023-06-22T13:42:03;23.76;32.20
75838;SHT30;64480;52.040;113.502;2023-06-22T13:45:08;23.72;32.35
75838;SHT30;64480;52.040;113.502;2023-06-22T13:48:12;23.75;32.23
75838;SHT30;64480;52.040;113.502;2023-06-22T13:51:16;23.63;32.48
75838;SHT30;64480;52.040;113.502;2023-06-22T13:54:20;23.61;32.47
75838;SHT30;64480;52.040;113.502;2023-06-22T13:57:27;23.55;32.42
75838;SHT30;64480;52.040;113.502;2023-06-22T14:00:30;23.52;32.47
75838;SHT30;64480;52.040;113.502;2023-06-22T14:03:35;23.45;32.46
75838;SHT30;64480;52.040;113.502;2023-06-22T14:06:38;23.47;32.34
75838;SHT30;64480;52.040;113.502;2023-06-22T14:09:42;23.47;32.40
75838;SHT30;64480;52.040;113.502;2023-06-22T14:12:45;23.37;32.55
75838;SHT30;64480;52.040;113.502;2023-06-22T14:15:49;23.28;32.52
75838;SHT30;64480;52.040;113.502;2023-06-22T14:18:55;23.21;32.63
75838;SHT30;64480;52.040;113.502;2023-06-22T14:21:59;23.07;33.03
75838;SHT30;64480;52.040;113.502;2023-06-22T14:25:04;22.98;33.24
75838;SHT30;64480;52.040;113.502;2023-06-22T14:28:07;22.88;33.50
75838;SHT30;64480;52.040;113.502;2023-06-22T14:31:11;22.75;33.66
75838;SHT30;64480;52.040;113.502;2023-06-22T14:34:16;22.66;34.08
75838;SHT30;64480;52.040;113.502;2023-06-22T14:37:19;22.55;34.12
75838;SHT30;64480;52.040;113.502;2023-06-22T14:40:23;22.45;34.43
75838;SHT30;64480;52.040;113.502;2023-06-22T14:43:28;22.38;34.59
75838;SHT30;64480;52.040;113.502;2023-06-22T14:46:31;22.27;35.13
75838;SHT30;64480;52.040;113.502;2023-06-22T14:49:35;22.18;34.84
75838;SHT30;64480;52.040;113.502;2023-06-22T14:52:41;22.13;34.78
75838;SHT30;64480;52.040;113.502;2023-06-22T14:55:45;22.10;34.58
75838;SHT30;64480;52.040;113.502;2023-06-22T14:58:48;22.01;34.66
75838;SHT30;64480;52.040;113.502;2023-06-22T15:01:52;22.00;34.56
75838;SHT30;64480;52.040;113.502;2023-06-22T15:04:55;21.96;34.59
75838;SHT30;64480;52.040;113.502;2023-06-22T15:08:01;21.89;34.93
75838;SHT30;64480;52.040;113.502;2023-06-22T15:11:05;21.86;34.82
75838;SHT30;64480;52.040;113.502;2023-06-22T15:14:08;21.78;34.82
75838;SHT30;64480;52.040;113.502;2023-06-22T15:17:16;21.75;34.96
75838;SHT30;64480;52.040;113.502;2023-06-22T15:20:20;21.71;35.05
75838;SHT30;64480;52.040;113.502;2023-06-22T15:23:23;21.65;35.12
75838;SHT30;64480;52.040;113.502;2023-06-22T15:26:27;21.59;35.14
75838;SHT30;64480;52.040;113.502;2023-06-22T15:29:30;21.59;35.10
75838;SHT30;64480;52.040;113.502;2023-06-22T15:32:38;21.54;35.30
75838;SHT30;64480;52.040;113.502;2023-06-22T15:35:42;21.49;35.46
75838;SHT30;64480;52.040;113.502;2023-06-22T15:38:45;21.46;35.99
75838;SHT30;64480;52.040;113.502;2023-06-22T15:41:50;21.32;38.67
75838;SHT30;64480;52.040;113.502;2023-06-22T15:44:57;21.10;39.28
75838;SHT30;64480;52.040;113.502;2023-06-22T15:48:00;20.90;39.04
75838;SHT30;64480;52.040;113.502;2023-06-22T15:51:04;20.82;38.75
75838;SHT30;64480;52.040;113.502;2023-06-22T15:54:07;20.75;38.50
75838;SHT30;64480;52.040;113.502;2023-06-22T15:57:11;20.68;37.85
75838;SHT30;64480;52.040;113.502;2023-06-22T16:00:18;20.72;37.28
75838;SHT30;64480;52.040;113.502;2023-06-22T16:03:21;20.72;37.21
75838;SHT30;64480;52.040;113.502;2023-06-22T16:06:25;20.76;37.25
75838;SHT30;64480;52.040;113.502;2023-06-22T16:09:29;20.72;37.38
75838;SHT30;64480;52.040;113.502;2023-06-22T16:12:34;20.66;37.24
75838;SHT30;64480;52.040;113.502;2023-06-22T16:15:38;20.66;37.13
75838;SHT30;64480;52.040;113.502;2023-06-22T16:18:42;20.59;37.33
75838;SHT30;64480;52.040;113.502;2023-06-22T16:21:46;20.56;37.45
75838;SHT30;64480;52.040;113.502;2023-06-22T16:24:49;20.49;38.17
75838;SHT30;64480;52.040;113.502;2023-06-22T16:27:54;20.42;39.08
75838;SHT30;64480;52.040;113.502;2023-06-22T16:30:58;20.32;40.17
75838;SHT30;64480;52.040;113.502;2023-06-22T16:34:03;20.13;40.63
75838;SHT30;64480;52.040;113.502;2023-06-22T16:37:06;19.97;41.05
75838;SHT30;64480;52.040;113.502;2023-06-22T16:40:10;19.87;41.31
75838;SHT30;64480;52.040;113.502;2023-06-22T16:43:13;19.74;40.82
75838;SHT30;64480;52.040;113.502;2023-06-22T16:46:16;19.70;40.69
75838;SHT30;64480;52.040;113.502;2023-06-22T16:49:20;19.69;40.50
75838;SHT30;64480;52.040;113.502;2023-06-22T16:52:23;19.63;40.51
75838;SHT30;64480;52.040;113.502;2023-06-22T16:55:29;19.63;40.52
75838;SHT30;64480;52.040;113.502;2023-06-22T16:58:33;19.56;41.05
75838;SHT30;64480;52.040;113.502;2023-06-22T17:01:53;19.46;41.81
75838;SHT30;64480;52.040;113.502;2023-06-22T17:04:57;19.32;42.44
75838;SHT30;64480;52.040;113.502;2023-06-22T17:08:02;19.21;42.74
75838;SHT30;64480;52.040;113.502;2023-06-22T17:11:07;19.08;43.20
75838;SHT30;64480;52.040;113.502;2023-06-22T17:14:11;18.94;43.61
75838;SHT30;64480;52.040;113.502;2023-06-22T17:17:16;18.82;44.05
75838;SHT30;64480;52.040;113.502;2023-06-22T17:20:20;18.74;44.42
75838;SHT30;64480;52.040;113.502;2023-06-22T17:23:24;18.63;44.93
75838;SHT30;64480;52.040;113.502;2023-06-22T17:26:28;18.42;45.50
75838;SHT30;64480;52.040;113.502;2023-06-22T17:29:33;18.25;46.45
75838;SHT30;64480;52.040;113.502;2023-06-22T17:32:37;18.11;46.90
75838;SHT30;64480;52.040;113.502;2023-06-22T17:35:50;17.97;47.61
75838;SHT30;64480;52.040;113.502;2023-06-22T17:39:00;17.86;47.84
75838;SHT30;64480;52.040;113.502;2023-06-22T17:42:06;17.76;48.11
75838;SHT30;64480;52.040;113.502;2023-06-22T17:45:16;17.62;48.58
75838;SHT30;64480;52.040;113.502;2023-06-22T17:48:21;17.55;48.72
75838;SHT30;64480;52.040;113.502;2023-06-22T17:51:26;17.48;49.08
75838;SHT30;64480;52.040;113.502;2023-06-22T17:54:30;17.39;49.03
75838;SHT30;64480;52.040;113.502;2023-06-22T17:57:41;17.34;49.20
75838;SHT30;64480;52.040;113.502;2023-06-22T18:00:49;17.35;49.33
75838;SHT30;64480;52.040;113.502;2023-06-22T18:03:52;17.32;49.18
75838;SHT30;64480;52.040;113.502;2023-06-22T18:06:56;17.32;49.21
75838;SHT30;64480;52.040;113.502;2023-06-22T18:09:59;17.29;49.35
75838;SHT30;64480;52.040;113.502;2023-06-22T18:13:03;17.22;49.50
75838;SHT30;64480;52.040;113.502;2023-06-22T18:16:07;17.15;49.23
75838;SHT30;64480;52.040;113.502;2023-06-22T18:19:13;17.12;49.33
75838;SHT30;64480;52.040;113.502;2023-06-22T18:22:18;17.10;49.30
75838;SHT30;64480;52.040;113.502;2023-06-22T18:25:22;17.14;49.28
75838;SHT30;64480;52.040;113.502;2023-06-22T18:28:25;17.15;49.42
75838;SHT30;64480;52.040;113.502;2023-06-22T18:31:29;17.21;49.38
75838;SHT30;64480;52.040;113.502;2023-06-22T18:34:33;17.19;49.59
75838;SHT30;64480;52.040;113.502;2023-06-22T18:37:39;17.19;49.26
75838;SHT30;64480;52.040;113.502;2023-06-22T18:40:50;17.19;49.05
75838;SHT30;64480;52.040;113.502;2023-06-22T18:43:59;17.08;49.37
75838;SHT30;64480;52.040;113.502;2023-06-22T18:47:03;16.93;50.04
75838;SHT30;64480;52.040;113.502;2023-06-22T18:50:08;16.70;50.88
75838;SHT30;64480;52.040;113.502;2023-06-22T18:53:24;16.56;51.18
75838;SHT30;64480;52.040;113.502;2023-06-22T18:56:28;16.52;51.38
75838;SHT30;64480;52.040;113.502;2023-06-22T18:59:51;16.49;51.51